Time;durP1;ratioP1;P1;durP2;ratioP2;P2;SDS_P1;SDS_P2;PMS_P1;PMS_P2;Temp;Humidity;BMP_temperature;BMP_pressure;BME280_temperature;BME280_humidity;BME280_pressure;Samples;Min_cycle;Max_cycle;Signal;HPM_P1;HPM_P2
2023/04/12 00:01:38;;;;;;;3.90;3.35;;;;;;;8.09;79.80;99026.50;1639657;85;21596;-66
2023/04/12 00:04:05;;;;;;;4.03;3.37;;;;;;;8.12;79.84;99025.05;1646543;85;20979;-69
2023/04/12 00:06:31;;;;;;;4.85;3.50;;;;;;;8.13;79.74;99016.36;1645325;85;21558;-69
2023/04/12 00:08:59;;;;;;;4.50;3.40;;;;;;;8.14;79.73;99015.43;1648766;85;21700;-68
2023/04/12 00:11:26;;;;;;;;;;;;;;;8.15;79.74;99017.13;1642197;85;20984;-67
2023/04/12 00:13:52;;;;;;;3.90;3.00;;;;;;;8.17;79.84;99012.67;1643040;85;20195;-69
2023/04/12 00:16:19;;;;;;;6.50;2.90;;;;;;;8.15;79.68;99017.56;1641783;85;21466;-68
2023/04/12 00:18:46;;;;;;;3.73;3.03;;;;;;;8.14;79.79;99015.43;1640739;85;21010;-65
2023/04/12 00:21:12;;;;;;;3.85;3.12;;;;;;;8.14;79.97;99018.49;1644298;85;20980;-65
2023/04/12 00:23:39;;;;;;;3.33;2.80;;;;;;;8.14;79.76;99020.63;1639662;85;21084;-69
2023/04/12 00:26:06;;;;;;;3.60;2.90;;;;;;;8.11;79.58;99016.88;1648519;85;21531;-69
2023/04/12 00:28:32;;;;;;;4.47;2.80;;;;;;;8.13;79.51;99020.72;1636937;85;21034;-67
2023/04/12 00:30:58;;;;;;;2.85;2.52;;;;;;;8.15;79.57;99016.27;1646373;85;21056;-69
2023/04/12 00:33:24;;;;;;;3.25;2.87;;;;;;;8.15;79.46;99018.86;1643103;85;21098;-68
2023/04/12 00:35:51;;;;;;;3.95;2.87;;;;;;;8.16;79.55;99024.00;1649629;85;21000;-69
2023/04/12 00:38:17;;;;;;;3.05;2.62;;;;;;;8.18;79.62;99029.98;1625966;86;21041;-69
2023/04/12 00:40:44;;;;;;;7.03;2.98;;;;;;;8.20;79.59;99024.23;1632914;86;21126;-69
2023/04/12 00:43:17;;;;;;;3.40;3.10;;;;;;;8.23;79.55;99025.41;1632055;86;21102;-68
2023/04/12 00:45:46;;;;;;;3.92;3.00;;;;;;;8.23;79.38;99025.41;1627666;86;20994;-67
2023/04/12 00:48:14;;;;;;;5.22;2.80;;;;;;;8.21;79.32;99029.00;1626692;86;21044;-68
2023/04/12 00:50:43;;;;;;;3.67;2.80;;;;;;;8.21;79.53;99028.53;1628011;86;20971;-69
2023/04/12 00:53:12;;;;;;;4.05;2.87;;;;;;;8.19;79.32;99029.05;1627633;86;21043;-69
2023/04/12 00:55:44;;;;;;;3.98;2.60;;;;;;;8.13;79.23;99018.95;1626147;86;21012;-67
2023/04/12 00:58:13;;;;;;;3.10;2.40;;;;;;;8.07;79.47;99011.45;1631728;86;21499;-69
2023/04/12 01:00:39;;;;;;;4.33;2.50;;;;;;;8.15;79.73;99014.53;1624965;86;21018;-68
2023/04/12 01:03:07;;;;;;;3.00;2.25;;;;;;;8.14;79.58;99015.43;1609270;87;21592;-69
2023/04/12 01:05:37;;;;;;;3.10;2.40;;;;;;;8.15;79.76;99019.73;1633983;86;21693;-69
2023/04/12 01:08:06;;;;;;;3.70;2.42;;;;;;;8.13;79.67;99018.95;1624862;86;21083;-69
2023/04/12 01:10:42;;;;;;;3.42;2.58;;;;;;;8.15;79.79;99023.63;1635622;86;21020;-67
2023/04/12 01:13:33;;;;;;;2.90;2.58;;;;;;;8.11;79.43;99022.08;1631423;86;21038;-68
2023/04/12 01:16:16;;;;;;;3.33;2.50;;;;;;;8.06;79.51;99026.66;1625410;86;21493;-68
2023/04/12 01:18:49;;;;;;;4.03;2.62;;;;;;;8.02;79.48;99026.44;1618760;86;21153;-67
2023/04/12 01:21:17;;;;;;;3.02;2.50;;;;;;;8.00;79.69;99021.75;1623072;87;21118;-69
2023/04/12 01:24:12;;;;;;;4.05;2.87;;;;;;;8.03;79.90;99022.91;1605951;87;21003;-68
2023/04/12 01:26:46;;;;;;;2.85;2.37;;;;;;;8.05;79.93;99023.69;1601270;88;21077;-69
2023/04/12 01:29:17;;;;;;;3.20;2.50;;;;;;;8.11;79.93;99020.78;1562689;90;21081;-67
2023/04/12 01:31:53;;;;;;;3.52;2.75;;;;;;;8.13;79.94;99021.56;1533278;92;21196;-66
2023/04/12 01:34:22;;;;;;;3.45;2.62;;;;;;;8.15;79.93;99022.33;1565401;90;21556;-69
2023/04/12 01:36:51;;;;;;;3.10;2.47;;;;;;;8.14;79.74;99024.53;1597255;88;21125;-68
2023/04/12 01:39:17;;;;;;;3.17;2.87;;;;;;;8.13;79.94;99024.16;1589637;89;21126;-68
2023/04/12 01:41:47;;;;;;;3.10;2.52;;;;;;;8.13;79.92;99021.56;1561946;90;21105;-66
2023/04/12 01:44:16;;;;;;;2.65;2.45;;;;;;;8.14;79.88;99027.59;1588033;89;21103;-69
2023/04/12 01:46:46;;;;;;;3.90;2.87;;;;;;;8.14;79.97;99023.23;1560942;90;21058;-68
2023/04/12 01:49:13;;;;;;;3.80;3.17;;;;;;;8.14;79.92;99022.39;1560434;90;21019;-63
2023/04/12 01:51:52;;;;;;;2.52;2.33;;;;;;;8.14;79.96;99021.93;1587100;89;21050;-69
2023/04/12 01:54:24;;;;;;;3.25;2.80;;;;;;;8.17;80.09;99013.97;1589418;89;21088;-65
2023/04/12 01:56:56;;;;;;;3.47;2.85;;;;;;;8.16;80.11;99014.91;1561497;90;21046;-69
2023/04/12 01:59:24;;;;;;;3.90;3.33;;;;;;;8.19;80.29;99008.25;1589195;89;21009;-68
2023/04/12 02:01:51;;;;;;;4.00;3.20;;;;;;;8.18;80.09;99001.38;1621459;86;20981;-65
2023/04/12 02:04:20;;;;;;;4.67;2.80;;;;;;;8.21;80.25;99001.22;1623710;86;21092;-69
2023/04/12 02:06:47;;;;;;;4.37;2.95;;;;;;;8.21;80.11;99003.83;1626723;86;21041;-70
2023/04/12 02:09:13;;;;;;;4.78;3.20;;;;;;;8.19;80.18;98998.31;1628281;86;21024;-63
2023/04/12 02:11:39;;;;;;;3.60;2.98;;;;;;;8.20;80.15;99004.72;1625436;86;21001;-68
2023/04/12 02:14:06;;;;;;;3.40;3.10;;;;;;;8.14;79.89;98997.23;1623192;86;21069;-65
2023/04/12 02:16:34;;;;;;;4.40;3.08;;;;;;;8.10;80.17;98995.70;1626386;86;21020;-67
2023/04/12 02:19:01;;;;;;;4.15;3.40;;;;;;;8.17;80.49;98993.17;1627134;86;21013;-66
2023/04/12 02:21:27;;;;;;;6.58;3.95;;;;;;;8.20;80.36;98991.72;1630342;86;21087;-69
2023/04/12 02:23:54;;;;;;;4.70;3.20;;;;;;;8.22;80.40;98997.70;1633857;86;21063;-70
2023/04/12 02:26:22;;;;;;;3.95;3.05;;;;;;;8.23;80.40;99000.70;1629928;86;20989;-69
2023/04/12 02:28:48;;;;;;;3.55;2.98;;;;;;;8.25;80.46;98997.55;1629366;86;21108;-68
2023/04/12 02:31:14;;;;;;;5.10;3.37;;;;;;;8.24;80.31;99006.27;1628872;86;21019;-68
2023/04/12 02:33:41;;;;;;;3.77;3.20;;;;;;;8.23;80.22;99007.20;1626509;86;20961;-70
2023/04/12 02:36:10;;;;;;;3.00;2.70;;;;;;;8.22;80.41;99005.50;1630404;86;21004;-66
2023/04/12 02:38:36;;;;;;;4.58;3.00;;;;;;;8.23;80.46;99007.20;1641927;85;21062;-69
2023/04/12 02:41:03;;;;;;;3.60;3.30;;;;;;;8.26;80.52;99012.25;1650436;85;21031;-69
2023/04/12 02:43:29;;;;;;;3.50;2.90;;;;;;;8.27;80.33;99006.12;1644918;85;21402;-69
2023/04/12 02:45:55;;;;;;;3.90;3.17;;;;;;;8.26;80.49;98999.25;1648169;85;21053;-68
2023/04/12 02:48:21;;;;;;;4.90;3.12;;;;;;;8.32;80.74;98997.23;1641705;85;21049;-68
2023/04/12 02:50:48;;;;;;;4.80;3.08;;;;;;;8.36;80.69;99006.59;1642620;85;21158;-69
2023/04/12 02:53:15;;;;;;;4.20;3.12;;;;;;;8.35;80.56;99004.91;1651114;85;21063;-65
2023/04/12 02:55:43;;;;;;;3.87;3.10;;;;;;;8.34;80.60;99005.81;1648490;85;21487;-69
2023/04/12 02:58:09;;;;;;;4.00;3.47;;;;;;;8.38;80.67;99011.27;1646301;85;21027;-69
2023/04/12 03:00:36;;;;;;;4.45;3.60;;;;;;;8.39;80.73;99010.36;1644654;85;21037;-68
2023/04/12 03:03:02;;;;;;;3.60;2.85;;;;;;;8.38;80.64;99007.36;1648461;85;21875;-70
2023/04/12 03:05:28;;;;;;;3.50;3.00;;;;;;;8.41;80.76;99004.63;1620327;86;21058;-69
2023/04/12 03:07:55;;;;;;;3.67;2.95;;;;;;;8.41;80.62;99000.73;1627931;86;20967;-69
2023/04/12 03:10:21;;;;;;;3.37;2.75;;;;;;;8.41;80.65;99001.57;1627984;86;21042;-69
2023/04/12 03:12:47;;;;;;;4.53;3.42;;;;;;;8.41;80.58;99007.23;1627737;86;21429;-69
2023/04/12 03:15:13;;;;;;;4.00;3.12;;;;;;;8.41;80.65;99009.84;1634476;86;21063;-67
2023/04/12 03:17:41;;;;;;;3.92;3.20;;;;;;;8.43;80.74;99007.98;1632719;86;21067;-68
2023/04/12 03:20:08;;;;;;;5.03;3.55;;;;;;;8.45;80.79;99006.15;1683498;83;20982;-68
2023/04/12 03:22:37;;;;;;;4.60;3.15;;;;;;;8.49;80.86;99014.20;1679718;83;21001;-68
2023/04/12 03:25:08;;;;;;;3.83;2.98;;;;;;;8.52;80.85;99004.94;1679826;83;21523;-64
2023/04/12 03:27:35;;;;;;;3.33;3.02;;;;;;;8.54;80.73;99010.88;1681034;82;21044;-69
2023/04/12 03:30:01;;;;;;;4.10;3.60;;;;;;;8.52;80.64;99012.75;1684112;83;20958;-65
2023/04/12 03:32:27;;;;;;;3.83;2.92;;;;;;;8.52;80.69;99015.34;1682137;83;20983;-69
2023/04/12 03:34:54;;;;;;;5.42;4.00;;;;;;;8.52;80.80;99020.55;1677658;83;21024;-65
2023/04/12 03:37:20;;;;;;;4.10;3.20;;;;;;;8.50;80.80;99015.41;1684051;83;21035;-67
2023/04/12 03:39:46;;;;;;;4.12;3.30;;;;;;;8.50;80.83;99011.97;1669939;83;21114;-68
2023/04/12 03:42:14;;;;;;;4.70;3.83;;;;;;;8.53;80.96;99016.19;1672580;83;21015;-69
2023/04/12 03:44:41;;;;;;;;;;;;;;;8.56;81.04;99014.27;1671409;83;21480;-68
2023/04/12 03:47:07;;;;;;;6.60;3.37;;;;;;;8.60;81.00;99017.11;1671071;83;20498;-68
2023/04/12 03:49:37;;;;;;;4.65;3.42;;;;;;;8.61;80.84;99015.34;1670786;83;21032;-66
2023/04/12 03:52:02;;;;;;;4.78;3.92;;;;;;;8.61;80.97;99009.67;1666894;83;20996;-64
2023/04/12 03:54:28;;;;;;;4.95;4.00;;;;;;;8.62;80.92;99024.35;1672650;83;21054;-67
2023/04/12 03:56:55;;;;;;;4.83;4.00;;;;;;;8.59;80.79;99019.30;1676580;83;21070;-68
2023/04/12 03:59:21;;;;;;;4.50;3.95;;;;;;;8.60;81.03;99018.41;1670450;83;21070;-68
2023/04/12 04:01:48;;;;;;;6.85;4.08;;;;;;;8.60;81.03;99011.91;1671971;83;21645;-67
2023/04/12 04:04:14;;;;;;;5.25;3.90;;;;;;;8.62;81.10;99021.75;1675171;83;21600;-70
2023/04/12 04:06:40;;;;;;;4.65;3.98;;;;;;;8.62;81.06;99019.15;1672314;83;21042;-69
2023/04/12 04:09:06;;;;;;;5.80;3.85;;;;;;;8.59;80.96;99011.50;1672775;83;20998;-69
2023/04/12 04:11:32;;;;;;;4.10;3.70;;;;;;;8.58;81.04;99012.43;1668660;83;20956;-66
2023/04/12 04:13:59;;;;;;;4.30;3.72;;;;;;;8.59;81.08;99003.70;1670383;83;21145;-69
2023/04/12 04:16:25;;;;;;;4.78;3.80;;;;;;;8.58;81.03;99003.33;1676600;83;21015;-69
2023/04/12 04:18:52;;;;;;;5.65;4.55;;;;;;;8.56;80.93;98993.44;1672293;83;21075;-69
2023/04/12 04:21:18;;;;;;;4.30;3.70;;;;;;;8.58;81.13;98989.02;1676832;83;21122;-69
2023/04/12 04:23:46;;;;;;;5.22;4.35;;;;;;;8.60;81.18;98984.58;1673492;83;21049;-69
2023/04/12 04:26:14;;;;;;;7.50;5.60;;;;;;;8.65;81.34;98987.77;1670633;83;20952;-68
2023/04/12 04:28:43;;;;;;;6.72;5.42;;;;;;;8.68;81.40;98987.64;1678253;83;21047;-70
2023/04/12 04:31:11;;;;;;;6.67;5.83;;;;;;;8.71;81.26;98990.08;1672600;83;21475;-71
2023/04/12 04:33:38;;;;;;;;;;;;;;;8.73;81.32;98988.21;1678982;83;21020;-68
2023/04/12 04:36:08;;;;;;;8.93;7.03;;;;;;;8.77;81.39;98988.08;1670938;83;20428;-70
2023/04/12 04:38:35;;;;;;;7.60;6.17;;;;;;;8.79;81.30;98996.63;1677045;83;21083;-69
2023/04/12 04:41:02;;;;;;;8.23;6.60;;;;;;;8.79;81.06;98993.56;1672450;83;21042;-70
2023/04/12 04:43:29;;;;;;;10.28;6.15;;;;;;;8.82;81.21;98999.08;1673332;83;21411;-68
2023/04/12 04:45:59;;;;;;;11.12;6.70;;;;;;;8.84;81.15;98994.64;1667495;83;21011;-70
2023/04/12 04:48:26;;;;;;;7.85;6.80;;;;;;;8.83;81.12;99002.08;1669733;83;21075;-69
2023/04/12 04:50:52;;;;;;;8.53;5.58;;;;;;;8.86;81.19;99000.62;1671994;83;20972;-67
2023/04/12 04:53:21;;;;;;;12.58;7.55;;;;;;;8.85;81.14;98991.97;1670483;83;21051;-69
2023/04/12 04:55:47;;;;;;;10.38;6.80;;;;;;;8.89;81.11;98995.25;1669177;83;21483;-62
2023/04/12 04:58:15;;;;;;;8.75;7.22;;;;;;;8.91;81.19;98997.32;1673108;83;21476;-70
2023/04/12 05:00:43;;;;;;;8.33;6.95;;;;;;;8.92;81.06;99002.89;1676113;83;21015;-69
2023/04/12 05:03:10;;;;;;;8.75;7.20;;;;;;;8.95;81.10;99002.73;1676082;83;21020;-66
2023/04/12 05:05:37;;;;;;;8.68;6.70;;;;;;;8.92;80.81;99010.70;1676391;83;21008;-70
2023/04/12 05:08:04;;;;;;;8.83;7.17;;;;;;;8.90;80.91;99008.63;1679662;83;21003;-70
2023/04/12 05:10:32;;;;;;;9.15;7.08;;;;;;;8.86;80.75;99011.03;1670969;83;21628;-70
2023/04/12 05:12:58;;;;;;;7.83;6.90;;;;;;;8.82;80.74;99012.09;1674523;83;20976;-67
2023/04/12 05:15:24;;;;;;;8.63;6.65;;;;;;;8.77;80.63;99008.91;1668729;83;21056;-69
2023/04/12 05:17:51;;;;;;;9.80;7.47;;;;;;;8.73;80.74;99009.03;1675091;83;21006;-68
2023/04/12 05:20:17;;;;;;;8.60;7.70;;;;;;;8.70;80.82;99009.19;1669707;83;21102;-69
2023/04/12 05:22:44;;;;;;;9.30;7.53;;;;;;;8.72;80.87;99011.73;1675415;83;21532;-70
2023/04/12 05:25:10;;;;;;;10.70;7.58;;;;;;;8.73;80.89;99015.55;1673619;83;21027;-70
2023/04/12 05:27:38;;;;;;;9.03;7.50;;;;;;;8.73;80.97;99011.64;1672975;83;21008;-70
2023/04/12 05:30:10;;;;;;;10.18;7.90;;;;;;;8.77;80.91;99016.72;1657437;83;21007;-69
2023/04/12 05:32:37;;;;;;;9.13;7.60;;;;;;;8.81;81.08;99016.92;1672459;83;21016;-70
2023/04/12 05:35:05;;;;;;;11.12;7.70;;;;;;;8.88;81.22;99017.01;1658285;84;21486;-71
2023/04/12 05:37:32;;;;;;;10.85;7.25;;;;;;;9.00;81.46;99020.73;1673511;83;21048;-63
2023/04/12 05:39:58;;;;;;;12.03;8.80;;;;;;;9.08;81.31;99012.90;1672050;84;21112;-68
2023/04/12 05:42:25;;;;;;;11.12;8.48;;;;;;;9.22;81.57;99007.43;1673047;84;21516;-70
2023/04/12 05:44:56;;;;;;;10.63;8.98;;;;;;;9.31;81.27;99005.63;1670824;84;21511;-71
2023/04/12 05:47:22;;;;;;;11.70;9.80;;;;;;;9.34;81.12;99005.47;1673739;84;20994;-71
2023/04/12 05:49:48;;;;;;;11.05;9.18;;;;;;;9.45;81.32;98994.00;1670980;84;21300;-68
2023/04/12 05:52:15;;;;;;;10.53;8.85;;;;;;;9.50;81.16;99002.41;1672317;84;21036;-69
2023/04/12 05:54:41;;;;;;;11.45;9.30;;;;;;;9.68;81.48;99008.38;1672254;84;21016;-71
2023/04/12 05:57:08;;;;;;;10.40;9.33;;;;;;;9.78;81.19;99003.52;1670789;84;20978;-70
2023/04/12 05:59:34;;;;;;;12.18;10.75;;;;;;;9.92;81.33;99003.58;1670277;84;21040;-70
2023/04/12 06:02:00;;;;;;;11.65;9.13;;;;;;;10.03;81.23;99006.42;1671009;84;21033;-70
2023/04/12 06:04:26;;;;;;;12.30;9.75;;;;;;;10.17;81.37;98996.98;1669799;84;21099;-70
2023/04/12 06:06:57;;;;;;;13.08;9.80;;;;;;;10.27;81.28;98985.94;1672539;84;21081;-70
2023/04/12 06:09:21;;;;;;;10.40;7.92;;;;;;;10.46;81.42;98988.33;1672773;84;21536;-70
2023/04/12 06:11:52;;;;;;;11.18;9.13;;;;;;;10.58;81.06;98995.06;1673645;84;21012;-70
2023/04/12 06:14:21;;;;;;;9.50;6.97;;;;;;;10.70;81.08;98993.05;1677459;84;21028;-70
2023/04/12 06:16:47;;;;;;;9.75;8.10;;;;;;;11.01;81.68;98993.36;1669688;83;21043;-68
2023/04/12 06:19:13;;;;;;;8.13;7.05;;;;;;;11.28;81.20;98981.66;1674199;84;21067;-69
2023/04/12 06:21:41;;;;;;;7.22;6.50;;;;;;;11.41;80.79;98989.13;1678117;84;20979;-70
2023/04/12 06:24:08;;;;;;;7.42;6.65;;;;;;;11.49;80.21;98978.66;1675376;84;21046;-71
2023/04/12 06:26:35;;;;;;;8.45;6.70;;;;;;;11.56;80.27;98976.86;1674052;84;21014;-67
2023/04/12 06:29:01;;;;;;;9.83;6.75;;;;;;;11.63;80.23;98972.09;1675269;84;20945;-69
2023/04/12 06:31:30;;;;;;;7.83;6.75;;;;;;;11.81;80.25;98970.07;1671386;84;20996;-75
2023/04/12 06:33:57;;;;;;;7.15;6.45;;;;;;;11.81;80.25;98970.07;1670523;84;21072;-69
2023/04/12 06:36:25;;;;;;;8.10;6.80;;;;;;;11.89;80.03;98960.45;1670391;84;21044;-68
2023/04/12 06:38:51;;;;;;;9.55;7.37;;;;;;;11.91;80.04;98969.05;1677334;83;21571;-67
2023/04/12 06:41:17;;;;;;;9.13;6.78;;;;;;;11.99;80.05;98970.23;1678962;83;20938;-69
2023/04/12 06:43:44;;;;;;;9.45;6.60;;;;;;;12.20;80.64;98978.45;1676458;83;21020;-70
2023/04/12 06:46:10;;;;;;;8.83;5.67;;;;;;;12.43;79.87;98980.01;1678622;83;21570;-73
2023/04/12 06:48:38;;;;;;;7.20;6.30;;;;;;;12.57;80.14;98983.84;1659640;83;20993;-69
2023/04/12 06:51:05;;;;;;;10.25;6.20;;;;;;;12.79;80.02;98979.78;1675397;83;21426;-72
2023/04/12 06:53:42;;;;;;;7.28;6.12;;;;;;;12.81;79.32;98978.74;1675980;83;20967;-71
2023/04/12 06:56:06;;;;;;;7.10;5.53;;;;;;;12.89;79.15;98983.47;1667136;83;21044;-70
2023/04/12 06:58:32;;;;;;;7.40;6.03;;;;;;;12.86;78.95;98983.67;1677209;83;20972;-69
2023/04/12 07:01:06;;;;;;;8.03;5.80;;;;;;;12.84;78.80;98979.01;1681582;83;21044;-71
2023/04/12 07:03:33;;;;;;;7.35;6.33;;;;;;;12.85;79.05;98981.98;1681476;83;20974;-73
2023/04/12 07:06:01;;;;;;;7.62;6.08;;;;;;;12.99;79.17;98979.25;1676616;83;21038;-70
2023/04/12 07:08:28;;;;;;;7.30;5.92;;;;;;;13.10;78.71;98981.97;1672631;83;21734;-67
2023/04/12 07:10:57;;;;;;;6.00;5.40;;;;;;;13.11;78.31;98990.21;1679867;83;21478;-71
2023/04/12 07:13:25;;;;;;;7.62;6.15;;;;;;;13.10;77.94;98989.83;1676638;83;20997;-74
2023/04/12 07:15:53;;;;;;;6.67;6.00;;;;;;;12.97;77.57;98987.23;1675658;83;20942;-73
2023/04/12 07:18:20;;;;;;;7.40;6.25;;;;;;;12.81;77.50;98983.15;1678679;83;21067;-73
2023/04/12 07:20:53;;;;;;;9.93;7.30;;;;;;;12.57;76.38;98989.08;1684966;83;21027;-64
2023/04/12 07:23:22;;;;;;;7.25;6.15;;;;;;;12.10;76.66;99000.94;1684935;83;20976;-73
2023/04/12 07:25:51;;;;;;;7.28;5.45;;;;;;;11.91;76.86;98995.22;1663982;83;20948;-72
2023/04/12 07:28:19;;;;;;;5.78;4.97;;;;;;;12.00;77.56;98987.59;1681218;83;21547;-71
2023/04/12 07:30:46;;;;;;;6.22;5.25;;;;;;;12.32;78.99;98984.64;1680019;82;20995;-69
2023/04/12 07:33:15;;;;;;;6.72;5.78;;;;;;;12.92;79.32;98988.49;1681856;83;20980;-64
2023/04/12 07:35:43;;;;;;;6.97;6.28;;;;;;;13.45;78.72;98986.57;1675731;83;21532;-60
2023/04/12 07:38:10;;;;;;;8.20;7.10;;;;;;;13.91;78.43;98978.01;1678771;83;21021;-60
2023/04/12 07:40:43;;;;;;;7.75;6.20;;;;;;;14.29;77.36;98987.50;1683313;83;21466;-60
2023/04/12 07:43:06;;;;;;;10.82;6.95;;;;;;;14.45;76.58;98982.78;1674761;83;21033;-61
2023/04/12 07:45:36;;;;;;;7.17;5.72;;;;;;;14.49;75.73;98980.75;1684909;83;21021;-60
2023/04/12 07:48:09;;;;;;;6.85;5.53;;;;;;;14.20;74.82;98988.16;1675696;83;21513;-62
2023/04/12 07:50:32;;;;;;;7.92;5.70;;;;;;;14.23;76.16;98987.95;1686257;83;21043;-60
2023/04/12 07:53:22;;;;;;;9.65;5.47;;;;;;;14.46;76.45;98983.12;1660624;83;21094;-59
2023/04/12 07:55:51;;;;;;;6.28;4.92;;;;;;;14.69;76.21;98976.64;1672973;83;20977;-60
2023/04/12 07:58:30;;;;;;;;;;;;;;;15.01;76.31;98984.67;1683519;83;21563;-59
2023/04/12 08:00:57;;;;;;;5.75;5.12;;;;;;;15.02;74.40;98972.39;1674490;83;20137;-60
2023/04/12 08:03:23;;;;;;;7.40;5.90;;;;;;;14.80;74.28;98976.66;1677155;83;21846;-61
2023/04/12 08:05:52;;;;;;;8.27;6.10;;;;;;;14.71;74.64;98976.06;1679012;82;21506;-60
2023/04/12 08:08:21;;;;;;;5.92;5.28;;;;;;;14.38;74.07;98976.30;1679613;83;21553;-62
2023/04/12 08:10:48;;;;;;;5.40;4.67;;;;;;;14.25;74.46;98972.91;1654180;85;21040;-60
2023/04/12 08:13:17;;;;;;;7.75;6.80;;;;;;;14.28;74.55;98968.28;1658490;83;21121;-60
2023/04/12 08:15:46;;;;;;;6.30;5.12;;;;;;;14.22;73.72;98965.26;1675687;83;21015;-60
2023/04/12 08:18:13;;;;;;;6.05;5.45;;;;;;;13.80;72.93;98964.83;1674058;83;21020;-61
2023/04/12 08:20:39;;;;;;;20.52;16.77;;;;;;;13.81;74.10;98961.28;1679252;83;21004;-60
2023/04/12 08:23:06;;;;;;;11.28;6.80;;;;;;;13.87;74.10;98963.45;1675304;83;20988;-60
2023/04/12 08:25:33;;;;;;;10.60;6.10;;;;;;;13.96;74.15;98962.77;1673729;83;20975;-63
2023/04/12 08:28:03;;;;;;;6.67;5.55;;;;;;;14.08;73.99;98959.23;1675217;83;21035;-62
2023/04/12 08:30:29;;;;;;;6.80;5.10;;;;;;;14.18;73.94;98954.63;1674175;83;21801;-62
2023/04/12 08:32:57;;;;;;;5.90;4.22;;;;;;;14.27;73.64;98956.56;1675620;83;20998;-62
2023/04/12 08:35:23;;;;;;;4.37;2.85;;;;;;;14.32;73.14;98949.19;1676905;83;21040;-63
2023/04/12 08:37:56;;;;;;;3.83;3.35;;;;;;;14.35;72.95;98948.95;1678501;83;44377;-60
2023/04/12 08:40:25;;;;;;;5.20;3.77;;;;;;;14.22;72.13;98948.19;1677192;83;21142;-61
2023/04/12 08:42:54;;;;;;;4.00;2.72;;;;;;;13.86;71.71;98943.39;1679226;83;21050;-60
2023/04/12 08:45:22;;;;;;;3.95;3.02;;;;;;;13.84;71.80;98955.80;1668325;83;21032;-60
2023/04/12 08:47:54;;;;;;;3.75;3.12;;;;;;;14.01;72.39;98944.91;1681134;83;21387;-62
2023/04/12 08:50:25;;;;;;;4.92;3.47;;;;;;;13.86;70.68;98948.63;1683562;83;21615;-60
2023/04/12 08:52:55;;;;;;;5.10;4.22;;;;;;;13.39;70.26;98950.30;1652275;83;20966;-60
2023/04/12 08:55:21;;;;;;;4.95;3.70;;;;;;;12.91;70.42;98944.88;1683490;83;21023;-60
2023/04/12 08:57:50;;;;;;;4.87;3.50;;;;;;;12.78;71.17;98942.76;1676201;83;21739;-60
2023/04/12 09:00:19;;;;;;;5.92;3.98;;;;;;;13.09;71.74;98940.98;1675634;82;21028;-61
2023/04/12 09:02:47;;;;;;;4.78;3.47;;;;;;;13.46;71.84;98931.86;1678870;83;21568;-60
2023/04/12 09:05:14;;;;;;;5.20;3.45;;;;;;;13.55;70.90;98929.04;1673210;83;21003;-60
2023/04/12 09:07:41;;;;;;;3.85;3.12;;;;;;;13.77;70.97;98933.57;1676175;83;21413;-60
2023/04/12 09:10:08;;;;;;;4.80;4.12;;;;;;;13.42;69.90;98933.03;1677713;83;22026;-61
2023/04/12 09:12:34;;;;;;;4.15;3.67;;;;;;;13.03;70.30;98929.62;1674749;83;20988;-61
2023/04/12 09:15:11;;;;;;;4.60;3.15;;;;;;;13.04;70.62;98933.91;1676858;83;21030;-60
2023/04/12 09:17:39;;;;;;;7.50;4.40;;;;;;;13.52;71.61;98927.47;1675629;83;20983;-61
2023/04/12 09:20:18;;;;;;;5.75;3.87;;;;;;;13.67;70.34;98934.73;1680145;83;21504;-60
2023/04/12 09:22:45;;;;;;;5.22;3.98;;;;;;;13.77;69.87;98929.16;1674361;83;21006;-60
2023/04/12 09:25:13;;;;;;;5.27;3.90;;;;;;;13.78;69.99;98927.36;1674638;83;21031;-61
2023/04/12 09:27:52;;;;;;;5.70;3.33;;;;;;;13.85;69.13;98925.98;1676415;83;21011;-60
2023/04/12 09:30:20;;;;;;;8.85;3.75;;;;;;;13.55;68.97;98922.00;1675876;83;21484;-61
2023/04/12 09:32:53;;;;;;;6.20;4.20;;;;;;;13.53;69.71;98921.30;1678257;83;21977;-60
2023/04/12 09:35:17;;;;;;;6.05;4.70;;;;;;;13.77;70.18;98920.45;1679885;83;21663;-60
2023/04/12 09:37:43;;;;;;;5.50;4.10;;;;;;;14.24;69.65;98918.73;1675378;82;34262;-60
2023/04/12 09:40:11;;;;;;;5.85;4.35;;;;;;;14.69;69.80;98916.21;1677807;83;21051;-63
2023/04/12 09:42:52;;;;;;;4.70;3.90;;;;;;;15.11;69.67;98907.25;1676368;83;21550;-60
2023/04/12 09:45:39;;;;;;;6.97;4.70;;;;;;;15.43;69.27;98901.59;1679384;83;21101;-61
2023/04/12 09:47:54;;;;;;;4.70;4.12;;;;;;;15.65;69.21;98899.83;1677972;83;21850;-61
2023/04/12 09:50:27;;;;;;;4.80;4.30;;;;;;;16.12;69.39;98900.39;1666539;83;21074;-61
2023/04/12 09:52:57;;;;;;;5.67;3.92;;;;;;;16.71;68.87;98898.45;1678548;83;21006;-61
2023/04/12 09:55:25;;;;;;;6.97;4.45;;;;;;;17.33;68.46;98891.83;1678132;83;21014;-66
2023/04/12 09:57:53;;;;;;;4.40;4.00;;;;;;;17.55;69.29;98891.59;1684119;83;20995;-62
2023/04/12 10:00:22;;;;;;;7.05;5.00;;;;;;;18.04;68.46;98886.38;1681430;83;21063;-62
2023/04/12 10:02:51;;;;;;;6.20;4.00;;;;;;;18.58;67.33;98889.33;1688688;83;21611;-61
2023/04/12 10:05:24;;;;;;;6.00;4.28;;;;;;;18.59;64.90;98885.69;1682634;83;21529;-60
2023/04/12 10:07:51;;;;;;;5.40;4.30;;;;;;;17.79;64.48;98884.63;1683330;83;21013;-61
2023/04/12 10:10:21;;;;;;;6.12;3.95;;;;;;;16.75;65.04;98876.15;1689815;83;21009;-60
2023/04/12 10:12:48;;;;;;;5.22;4.67;;;;;;;15.79;65.17;98879.83;1689945;83;21070;-60
2023/04/12 10:15:20;;;;;;;6.72;4.95;;;;;;;15.74;66.25;98888.61;1689161;83;20977;-61
2023/04/12 10:17:53;;;;;;;5.17;4.67;;;;;;;15.14;64.75;98893.86;1668845;83;21060;-63
2023/04/12 10:20:21;;;;;;;6.65;5.08;;;;;;;14.80;65.29;98889.94;1685380;83;21065;-60
2023/04/12 10:22:53;;;;;;;6.67;5.60;;;;;;;14.32;64.98;98895.36;1676711;83;21037;-61
2023/04/12 10:25:24;;;;;;;6.95;5.80;;;;;;;13.93;64.90;98897.39;1661371;84;21036;-60
2023/04/12 10:27:50;;;;;;;7.60;5.72;;;;;;;13.37;64.51;98890.09;1679583;83;21013;-61
2023/04/12 10:30:26;;;;;;;8.77;6.27;;;;;;;13.00;64.71;98886.61;1676222;83;21047;-60
2023/04/12 10:33:05;;;;;;;8.28;6.17;;;;;;;12.68;64.92;98879.67;1674543;83;21013;-63
2023/04/12 10:35:53;;;;;;;8.88;6.92;;;;;;;12.60;65.36;98872.34;1668680;83;21477;-60
2023/04/12 10:38:20;;;;;;;7.08;6.37;;;;;;;12.78;65.35;98873.34;1660188;83;57565;-59
2023/04/12 10:41:10;;;;;;;9.95;6.87;;;;;;;13.15;66.10;98863.70;1647766;85;21047;-60
2023/04/12 10:43:37;;;;;;;11.97;6.90;;;;;;;13.41;65.35;98872.34;1625311;87;21057;-59
2023/04/12 10:46:05;;;;;;;7.42;6.60;;;;;;;13.37;64.20;98871.73;1593140;88;21506;-60
2023/04/12 10:48:41;;;;;;;7.90;7.10;;;;;;;12.88;64.80;98871.73;1600531;88;21496;-61
2023/04/12 10:51:27;;;;;;;8.20;7.33;;;;;;;12.88;64.80;98871.73;1592353;88;22052;-60
2023/04/12 10:53:52;;;;;;;10.05;7.53;;;;;;;12.83;64.61;98871.24;1599618;88;21100;-67
2023/04/12 10:56:37;;;;;;;8.58;7.75;;;;;;;12.87;64.94;98877.93;1593931;88;21543;-60
2023/04/12 10:59:07;;;;;;;12.45;7.92;;;;;;;12.93;63.29;98882.25;1598988;88;21047;-61
2023/04/12 11:01:35;;;;;;;9.60;8.35;;;;;;;13.06;64.39;98877.00;1624316;87;21125;-60
2023/04/12 11:04:06;;;;;;;9.03;7.75;;;;;;;13.32;63.95;98875.16;1584818;88;21016;-60
2023/04/12 11:06:55;;;;;;;10.43;8.45;;;;;;;13.52;64.17;98880.27;1621250;87;21584;-60
2023/04/12 11:09:37;;;;;;;10.82;8.10;;;;;;;13.76;64.68;98866.32;1600385;87;21048;-60
2023/04/12 11:12:07;;;;;;;10.15;7.92;;;;;;;14.04;63.32;98867.72;1599752;87;21057;-60
2023/04/12 11:14:51;;;;;;;10.78;8.63;;;;;;;14.13;63.55;98864.87;1588583;88;20999;-60
2023/04/12 11:17:20;;;;;;;9.73;8.60;;;;;;;14.16;63.64;98858.08;1598929;87;21102;-61
2023/04/12 11:19:53;;;;;;;12.55;8.45;;;;;;;14.19;63.45;98860.47;1590213;89;21553;-61
2023/04/12 11:22:21;;;;;;;11.38;8.18;;;;;;;14.14;63.47;98857.35;1598881;87;21104;-60
2023/04/12 11:24:51;;;;;;;10.05;8.00;;;;;;;14.10;63.61;98857.59;1597638;88;20980;-61
2023/04/12 11:27:20;;;;;;;9.88;7.67;;;;;;;14.02;63.58;98859.95;1586133;89;21566;-60
2023/04/12 11:29:54;;;;;;;8.43;7.58;;;;;;;14.02;63.80;98856.02;1608921;87;21080;-60
2023/04/12 11:32:23;;;;;;;8.45;7.53;;;;;;;14.09;63.75;98855.92;1592861;87;21164;-60
2023/04/12 11:34:49;;;;;;;12.70;8.58;;;;;;;14.15;63.42;98860.36;1596799;88;21205;-60
2023/04/12 11:37:19;;;;;;;8.28;7.47;;;;;;;14.08;62.76;98854.23;1601122;87;35221;-60
2023/04/12 11:39:47;;;;;;;8.25;6.92;;;;;;;13.96;63.10;98853.86;1619659;86;21054;-60
2023/04/12 11:42:17;;;;;;;8.65;7.35;;;;;;;13.88;62.69;98854.91;1620283;86;21058;-61
2023/04/12 11:44:45;;;;;;;11.60;8.28;;;;;;;13.62;62.06;98844.56;1618174;86;21057;-60